Time;durP1;ratioP1;P1;durP2;ratioP2;P2;SDS_P1;SDS_P2;PMS_P1;PMS_P2;Temp;Humidity;BMP_temperature;BMP_pressure;BME280_temperature;BME280_humidity;BME280_pressure;Samples;Min_cycle;Max_cycle;Signal;HPM_P1;HPM_P2
2022/05/17 00:00:09;;;;;;;1999.90;999.90;;;17.60;99.90;;;;;;5043060;28;20749;-67
2022/05/17 00:02:36;;;;;;;1999.90;999.90;;;17.60;99.90;;;;;;5045756;28;20462;-67
2022/05/17 00:05:04;;;;;;;1999.90;999.90;;;17.60;99.90;;;;;;5035537;28;20451;-66
2022/05/17 00:07:30;;;;;;;1999.90;999.90;;;17.50;99.90;;;;;;5034920;28;20998;-65
2022/05/17 00:09:57;;;;;;;1999.90;999.90;;;17.50;99.90;;;;;;5042086;28;20447;-66
2022/05/17 00:12:23;;;;;;;1999.90;999.90;;;17.40;99.90;;;;;;5039335;28;21227;-67
2022/05/17 00:14:54;;;;;;;1999.90;999.90;;;17.40;99.90;;;;;;5046628;28;20488;-68
2022/05/17 00:17:20;;;;;;;1999.90;999.90;;;17.40;99.90;;;;;;5032662;28;20462;-68
2022/05/17 00:19:47;;;;;;;1999.90;999.90;;;17.40;99.90;;;;;;5036648;28;20505;-68
2022/05/17 00:22:14;;;;;;;1999.90;999.90;;;17.30;99.90;;;;;;5038481;28;20488;-66
2022/05/17 00:24:40;;;;;;;1999.90;999.90;;;17.20;99.90;;;;;;5044697;28;20446;-67
2022/05/17 00:27:07;;;;;;;1999.90;999.90;;;17.10;99.90;;;;;;5039993;28;20544;-66
2022/05/17 00:29:34;;;;;;;1999.90;999.90;;;17.10;99.90;;;;;;5040500;28;20466;-66
2022/05/17 00:32:03;;;;;;;1999.90;999.90;;;17.00;99.90;;;;;;5040775;28;20504;-67
2022/05/17 00:34:29;;;;;;;1999.90;999.90;;;16.90;99.90;;;;;;5044658;28;20525;-68
2022/05/17 00:36:56;;;;;;;1999.90;999.90;;;17.00;99.90;;;;;;5037629;28;20471;-68
2022/05/17 00:39:23;;;;;;;1999.90;999.90;;;16.90;99.90;;;;;;5045397;28;20468;-68
2022/05/17 00:41:49;;;;;;;1999.90;999.90;;;16.80;99.90;;;;;;5038844;28;20451;-67
2022/05/17 00:47:05;;;;;;;1999.90;999.90;;;16.80;99.90;;;;;;5035722;28;21083;-67
2022/05/17 00:49:36;;;;;;;1999.90;999.90;;;16.80;99.90;;;;;;5044164;28;21016;-68
2022/05/17 00:52:06;;;;;;;1999.90;999.90;;;16.80;99.90;;;;;;5050736;28;20442;-67
2022/05/17 00:54:35;;;;;;;1999.90;999.90;;;16.70;99.90;;;;;;5044783;28;20888;-68
2022/05/17 00:57:07;;;;;;;1999.90;999.90;;;16.70;99.90;;;;;;5045978;28;20995;-68
2022/05/17 00:59:34;;;;;;;1999.90;999.90;;;16.60;99.90;;;;;;5044247;28;20524;-68
2022/05/17 01:02:02;;;;;;;1999.90;999.90;;;16.60;99.90;;;;;;5045673;28;20458;-67
2022/05/17 01:04:29;;;;;;;1999.90;999.90;;;16.60;99.90;;;;;;5045480;28;21063;-67
2022/05/17 01:07:01;;;;;;;1999.90;999.90;;;16.60;99.90;;;;;;5045929;28;20482;-68
2022/05/17 01:09:28;;;;;;;1999.90;999.90;;;16.70;99.90;;;;;;5042308;28;20454;-68
2022/05/17 01:11:55;;;;;;;1999.90;999.90;;;16.60;99.90;;;;;;5049693;28;21011;-68
2022/05/17 01:17:10;;;;;;;1999.90;999.90;;;16.50;99.90;;;;;;5035017;28;20562;-66
2022/05/17 01:19:39;;;;;;;1999.90;999.90;;;16.60;99.90;;;;;;5032546;28;20450;-67
2022/05/17 01:22:07;;;;;;;1999.90;999.90;;;16.60;99.90;;;;;;5036730;28;20462;-66
2022/05/17 01:24:34;;;;;;;1999.90;999.90;;;16.60;99.90;;;;;;5041019;28;20888;-66
2022/05/17 01:27:07;;;;;;;1999.90;999.90;;;16.60;99.90;;;;;;5042174;28;20485;-69
2022/05/17 01:29:39;;;;;;;1999.90;999.90;;;16.60;99.90;;;;;;5047121;28;20451;-68
2022/05/17 01:32:07;;;;;;;1999.90;999.90;;;16.60;99.90;;;;;;5046807;28;20458;-68
2022/05/17 01:34:35;;;;;;;1999.90;999.90;;;16.70;99.90;;;;;;5046847;28;20481;-68
2022/05/17 01:37:02;;;;;;;1999.90;999.90;;;16.70;99.90;;;;;;5048102;28;20543;-68
2022/05/17 01:39:30;;;;;;;1999.90;999.90;;;16.70;99.90;;;;;;5042682;28;20449;-68
2022/05/17 01:41:57;;;;;;;1999.90;999.90;;;16.60;99.90;;;;;;5041500;28;20963;-68
2022/05/17 01:44:23;;;;;;;1999.90;999.90;;;16.60;99.90;;;;;;5051456;28;20454;-67
2022/05/17 01:46:50;;;;;;;1999.90;999.90;;;16.60;99.90;;;;;;5041775;28;20514;-69
2022/05/17 01:49:17;;;;;;;1999.90;999.90;;;16.60;99.90;;;;;;5041785;28;20974;-68
2022/05/17 01:51:44;;;;;;;1999.90;999.90;;;16.60;99.90;;;;;;5047539;28;20480;-68
2022/05/17 01:54:10;;;;;;;1999.90;999.90;;;16.60;99.90;;;;;;5039121;28;20463;-67
2022/05/17 01:56:38;;;;;;;1999.90;999.90;;;16.50;99.90;;;;;;5039749;28;20541;-68
2022/05/17 01:59:05;;;;;;;1999.90;999.90;;;16.60;99.90;;;;;;5040375;28;20519;-67
2022/05/17 02:01:31;;;;;;;1999.90;999.90;;;16.50;99.90;;;;;;5045827;28;20451;-66
2022/05/17 02:03:58;;;;;;;1999.90;999.90;;;16.50;99.90;;;;;;5047019;28;20524;-67
2022/05/17 02:06:25;;;;;;;1999.90;999.90;;;16.50;99.90;;;;;;5036473;28;20584;-67
2022/05/17 02:08:52;;;;;;;1999.90;999.90;;;16.50;99.90;;;;;;5043855;28;20891;-68
2022/05/17 02:11:19;;;;;;;1999.90;999.90;;;16.40;99.90;;;;;;5043499;28;20446;-67
2022/05/17 02:13:47;;;;;;;1999.90;999.90;;;16.40;99.90;;;;;;5044340;28;20465;-68
2022/05/17 02:16:13;;;;;;;1999.90;999.90;;;16.40;99.90;;;;;;5044764;28;20887;-67
2022/05/17 02:18:40;;;;;;;1999.90;999.90;;;16.30;99.90;;;;;;5039888;28;20493;-67
2022/05/17 02:21:07;;;;;;;1999.90;999.90;;;16.30;99.90;;;;;;5047309;28;20934;-67
2022/05/17 02:23:33;;;;;;;1999.90;999.90;;;16.30;99.90;;;;;;5039507;28;20463;-68
2022/05/17 02:26:00;;;;;;;1999.90;999.90;;;16.30;99.90;;;;;;5049284;28;20524;-64
2022/05/17 02:28:27;;;;;;;1999.90;999.90;;;16.30;99.90;;;;;;5043809;28;20463;-66
2022/05/17 02:30:55;;;;;;;1999.90;999.90;;;16.20;99.90;;;;;;5041655;28;20986;-66
2022/05/17 02:33:21;;;;;;;1999.90;999.90;;;16.20;99.90;;;;;;5043129;28;20442;-65
2022/05/17 02:35:48;;;;;;;1999.90;999.90;;;16.10;99.90;;;;;;5041388;28;20482;-65
2022/05/17 02:38:15;;;;;;;1999.90;999.90;;;16.20;99.90;;;;;;5042965;28;20589;-64
2022/05/17 02:40:41;;;;;;;1999.90;999.90;;;16.20;99.90;;;;;;5048587;28;22501;-66
2022/05/17 02:43:12;;;;;;;1999.90;999.90;;;16.20;99.90;;;;;;5041325;28;20451;-66
2022/05/17 02:45:38;;;;;;;1999.90;999.90;;;16.10;99.90;;;;;;5049216;28;20524;-65
2022/05/17 02:48:07;;;;;;;1999.90;999.90;;;16.10;99.90;;;;;;5034427;28;20483;-66
2022/05/17 02:50:34;;;;;;;1999.90;999.90;;;16.10;99.90;;;;;;5033580;28;20501;-65
2022/05/17 02:53:00;;;;;;;1999.90;999.90;;;16.10;99.90;;;;;;5030948;28;20522;-65
2022/05/17 02:55:27;;;;;;;1999.90;999.90;;;16.00;99.90;;;;;;5039803;28;20478;-67
2022/05/17 02:57:54;;;;;;;1999.90;999.90;;;16.00;99.90;;;;;;5032380;28;20497;-68
2022/05/17 03:00:21;;;;;;;1999.90;999.90;;;16.00;99.90;;;;;;5039977;28;20463;-66
2022/05/17 03:02:47;;;;;;;1999.90;999.90;;;15.90;99.90;;;;;;5036715;28;20463;-66
2022/05/17 03:05:16;;;;;;;1999.90;999.90;;;15.90;99.90;;;;;;5040537;28;20894;-66
2022/05/17 03:07:42;;;;;;;1999.90;999.90;;;15.90;99.90;;;;;;5031232;28;20871;-66
2022/05/17 03:10:10;;;;;;;1999.90;999.90;;;15.90;99.90;;;;;;5031991;28;20443;-66
2022/05/17 03:12:37;;;;;;;1999.90;999.90;;;16.00;99.90;;;;;;5035711;28;20466;-66
2022/05/17 03:15:05;;;;;;;1999.90;999.90;;;16.00;99.90;;;;;;5043266;28;20454;-66
2022/05/17 03:17:32;;;;;;;1999.90;999.90;;;16.10;99.90;;;;;;5041324;28;20458;-66
2022/05/17 03:19:58;;;;;;;1999.90;999.90;;;16.10;99.90;;;;;;5043477;28;20935;-68
2022/05/17 03:22:26;;;;;;;1999.90;999.90;;;16.20;99.90;;;;;;5041532;28;20467;-68
2022/05/17 03:24:53;;;;;;;1999.90;999.90;;;16.30;99.90;;;;;;5047288;28;20446;-67
2022/05/17 03:27:21;;;;;;;1999.90;999.90;;;16.20;99.90;;;;;;5042907;28;20486;-68
2022/05/17 03:29:48;;;;;;;1999.90;999.90;;;16.20;99.90;;;;;;5045185;28;20492;-68
2022/05/17 03:32:14;;;;;;;1999.90;999.90;;;16.20;99.90;;;;;;5039019;28;20509;-68
2022/05/17 03:34:41;;;;;;;1999.90;999.90;;;16.10;99.90;;;;;;5045813;28;20500;-67
2022/05/17 03:37:08;;;;;;;1999.90;999.90;;;16.10;99.90;;;;;;5046240;28;20515;-66
2022/05/17 03:39:36;;;;;;;1999.90;999.90;;;16.10;99.90;;;;;;5044600;28;20519;-66
2022/05/17 03:42:02;;;;;;;1999.90;999.90;;;16.00;99.90;;;;;;5047310;28;20470;-66
2022/05/17 03:44:29;;;;;;;1999.90;999.90;;;16.00;99.90;;;;;;5033607;28;20455;-66
2022/05/17 03:46:56;;;;;;;1999.90;999.90;;;16.00;99.90;;;;;;5039763;28;20532;-65
2022/05/17 03:49:22;;;;;;;1999.90;999.90;;;16.10;99.90;;;;;;5041015;28;20517;-65
2022/05/17 03:51:49;;;;;;;1999.90;999.90;;;16.10;99.90;;;;;;5046364;28;20926;-65
2022/05/17 03:54:18;;;;;;;1999.90;999.90;;;16.20;99.90;;;;;;5042493;28;20525;-66
2022/05/17 03:56:46;;;;;;;1999.90;999.90;;;16.20;99.90;;;;;;5045590;28;20827;-65
2022/05/17 03:59:12;;;;;;;1999.90;999.90;;;16.30;99.90;;;;;;5041548;28;20466;-66
2022/05/17 04:01:39;;;;;;;1999.90;999.90;;;16.40;99.90;;;;;;5044977;28;20814;-66
2022/05/17 04:04:06;;;;;;;1999.90;999.90;;;16.50;99.90;;;;;;5045078;28;20462;-66
2022/05/17 04:06:32;;;;;;;1999.90;999.90;;;16.60;99.90;;;;;;5043888;28;20817;-68
2022/05/17 04:08:59;;;;;;;1999.90;999.90;;;16.60;99.90;;;;;;5046873;28;20492;-68
2022/05/17 04:11:26;;;;;;;1999.90;999.90;;;16.60;99.90;;;;;;5030471;28;20451;-65
2022/05/17 04:13:54;;;;;;;1999.90;999.90;;;16.70;99.90;;;;;;5037064;28;20466;-66
2022/05/17 04:16:21;;;;;;;1999.90;999.90;;;16.70;99.90;;;;;;5042873;28;20462;-65
2022/05/17 04:18:48;;;;;;;1999.90;999.90;;;16.70;99.90;;;;;;5038320;28;20463;-65
2022/05/17 04:21:15;;;;;;;1999.90;999.90;;;16.70;99.90;;;;;;5048328;28;20454;-66
2022/05/17 04:23:42;;;;;;;1999.90;999.90;;;16.60;99.90;;;;;;5037625;28;20570;-66
2022/05/17 04:26:09;;;;;;;1999.90;999.90;;;16.60;99.90;;;;;;5036739;28;20475;-66
2022/05/17 04:28:37;;;;;;;1999.90;999.90;;;16.60;99.90;;;;;;5040703;28;20487;-66
2022/05/17 04:31:05;;;;;;;1999.90;999.90;;;16.60;99.90;;;;;;5051996;28;20481;-67
2022/05/17 04:33:31;;;;;;;1999.90;999.90;;;16.60;99.90;;;;;;5046273;28;20499;-66
2022/05/17 04:35:58;;;;;;;1999.90;999.90;;;16.70;99.90;;;;;;5044993;28;21006;-66
2022/05/17 04:38:25;;;;;;;1999.90;999.90;;;16.80;99.90;;;;;;5046540;28;20947;-65
2022/05/17 04:40:51;;;;;;;1999.90;999.90;;;16.70;99.90;;;;;;5042460;28;20475;-66
2022/05/17 04:43:18;;;;;;;1999.90;999.90;;;16.80;99.90;;;;;;5044698;28;20451;-66
2022/05/17 04:45:45;;;;;;;1999.90;999.90;;;16.80;99.90;;;;;;5052062;28;20470;-66
2022/05/17 04:48:13;;;;;;;1999.90;999.90;;;16.80;99.90;;;;;;5043191;28;20482;-65
2022/05/17 04:50:40;;;;;;;1999.90;999.90;;;16.90;99.90;;;;;;5047023;28;20472;-65
2022/05/17 04:53:07;;;;;;;1999.90;999.90;;;17.00;99.90;;;;;;5040966;28;20443;-65
2022/05/17 04:55:34;;;;;;;1999.90;999.90;;;17.00;99.90;;;;;;5055782;22;21028;-70
2022/05/17 04:58:00;;;;;;;1999.90;999.90;;;17.10;99.90;;;;;;5033297;28;20501;-68
2022/05/17 05:00:28;;;;;;;1999.90;999.90;;;17.10;99.90;;;;;;5030057;28;20891;-72
2022/05/17 05:02:55;;;;;;;1999.90;999.90;;;17.10;99.90;;;;;;5030238;28;20490;-70
2022/05/17 05:05:24;;;;;;;1999.90;999.90;;;17.20;99.90;;;;;;5030532;28;20547;-70
2022/05/17 05:07:51;;;;;;;1999.90;999.90;;;17.20;99.90;;;;;;5029453;28;21045;-68
2022/05/17 05:10:18;;;;;;;1999.90;999.90;;;17.30;99.90;;;;;;5030160;28;20974;-70
2022/05/17 05:12:45;;;;;;;1999.90;999.90;;;17.50;99.90;;;;;;5028352;28;20501;-72
2022/05/17 05:15:12;;;;;;;1999.90;999.90;;;17.60;99.90;;;;;;5024969;28;20468;-72
2022/05/17 05:17:39;;;;;;;1999.90;999.90;;;17.50;99.90;;;;;;5034226;28;20574;-69
2022/05/17 05:20:10;;;;;;;1999.90;999.90;;;17.60;99.90;;;;;;5024712;28;20959;-70
2022/05/17 05:22:39;;;;;;;1999.90;999.90;;;17.60;99.90;;;;;;5033628;28;20443;-71
2022/05/17 05:25:07;;;;;;;1999.90;999.90;;;17.70;99.90;;;;;;5024280;28;20578;-71
2022/05/17 05:27:36;;;;;;;1999.90;999.90;;;17.80;99.90;;;;;;5034101;28;20549;-71
2022/05/17 05:30:04;;;;;;;1999.90;999.90;;;17.80;99.90;;;;;;5031240;28;20459;-71
2022/05/17 05:32:31;;;;;;;1999.90;999.90;;;17.90;99.90;;;;;;5025501;28;20456;-70
2022/05/17 05:34:58;;;;;;;1999.90;999.90;;;18.10;99.90;;;;;;5025371;28;20497;-72
2022/05/17 05:37:25;;;;;;;1999.90;999.90;;;18.20;99.90;;;;;;5031095;28;20479;-71
2022/05/17 05:39:53;;;;;;;1999.90;999.90;;;18.20;99.90;;;;;;5033375;28;21162;-71
2022/05/17 05:42:19;;;;;;;1999.90;999.90;;;18.20;99.90;;;;;;5029590;28;20458;-71
2022/05/17 05:44:46;;;;;;;1999.90;999.90;;;18.20;99.90;;;;;;5031558;28;20509;-70
2022/05/17 05:47:12;;;;;;;1999.90;999.90;;;18.10;99.90;;;;;;5030728;28;20478;-70
2022/05/17 05:49:39;;;;;;;1999.90;999.90;;;18.00;99.90;;;;;;5030712;28;20467;-72
2022/05/17 05:52:07;;;;;;;1999.90;999.90;;;17.90;99.90;;;;;;5033112;28;20481;-71
2022/05/17 05:54:33;;;;;;;1999.90;999.90;;;17.80;99.90;;;;;;5025614;28;20520;-72
2022/05/17 05:57:02;;;;;;;1999.90;999.90;;;17.70;99.90;;;;;;5031115;28;20495;-72
2022/05/17 05:59:29;;;;;;;1999.90;999.90;;;17.70;99.90;;;;;;5033915;28;20467;-70
2022/05/17 06:01:57;;;;;;;1999.90;999.90;;;17.70;99.90;;;;;;5028553;28;20503;-71
2022/05/17 06:04:25;;;;;;;1999.90;999.90;;;17.80;99.90;;;;;;5032874;28;20501;-71
2022/05/17 06:06:52;;;;;;;1999.90;999.90;;;17.90;99.90;;;;;;5027655;28;20490;-71
2022/05/17 06:09:19;;;;;;;1999.90;999.90;;;17.90;99.90;;;;;;5033265;28;20513;-72
2022/05/17 06:11:45;;;;;;;1999.90;999.90;;;18.00;99.90;;;;;;5029543;28;20463;-71
2022/05/17 06:14:13;;;;;;;1999.90;999.90;;;18.00;99.90;;;;;;5032746;28;20447;-71
2022/05/17 06:16:40;;;;;;;1999.90;999.90;;;18.10;99.90;;;;;;5029802;28;20483;-70
2022/05/17 06:19:07;;;;;;;1999.90;999.90;;;18.10;99.90;;;;;;5023686;28;20942;-71
2022/05/17 06:21:33;;;;;;;1999.90;999.90;;;18.00;99.90;;;;;;5033033;28;20559;-71
2022/05/17 06:24:00;;;;;;;1999.90;999.90;;;18.00;99.90;;;;;;5024052;28;20522;-72
2022/05/17 06:26:27;;;;;;;1999.90;999.90;;;18.00;99.90;;;;;;5031832;28;20521;-71
2022/05/17 06:28:53;;;;;;;1999.90;999.90;;;18.10;99.90;;;;;;5029005;28;20886;-71
2022/05/17 06:31:21;;;;;;;1999.90;999.90;;;18.10;99.90;;;;;;5032618;28;20504;-71
2022/05/17 06:33:48;;;;;;;1999.90;999.90;;;18.20;99.90;;;;;;5030517;28;20463;-70
2022/05/17 06:36:15;;;;;;;1999.90;999.90;;;18.20;99.90;;;;;;5022538;28;20488;-71
2022/05/17 06:38:41;;;;;;;1999.90;999.90;;;18.40;99.90;;;;;;5032047;28;20447;-71
2022/05/17 06:41:08;;;;;;;1999.90;999.90;;;18.40;99.90;;;;;;5032179;28;20447;-71
2022/05/17 06:43:35;;;;;;;1999.90;999.90;;;18.20;99.90;;;;;;5030962;28;20533;-71
2022/05/17 06:46:02;;;;;;;1999.90;999.90;;;18.10;99.90;;;;;;5030565;28;20467;-71
2022/05/17 06:48:30;;;;;;;1999.90;999.90;;;18.00;99.90;;;;;;5031419;28;20478;-71
2022/05/17 06:51:02;;;;;;;1999.90;999.90;;;18.20;99.90;;;;;;5013532;28;20447;-71
2022/05/17 06:53:29;;;;;;;1999.90;999.90;;;18.20;99.90;;;;;;5022759;28;20467;-71
2022/05/17 06:55:58;;;;;;;1999.90;999.90;;;18.30;99.90;;;;;;5026402;28;20501;-71
2022/05/17 06:58:24;;;;;;;1999.90;999.90;;;18.30;99.90;;;;;;5031735;28;20505;-71
2022/05/17 07:00:51;;;;;;;1999.90;999.90;;;18.30;99.90;;;;;;5031217;28;20471;-71
2022/05/17 07:03:18;;;;;;;1999.90;999.90;;;18.60;99.90;;;;;;5026958;28;20463;-71
2022/05/17 07:05:46;;;;;;;1999.90;999.90;;;19.00;99.90;;;;;;5027649;28;20489;-71
2022/05/17 07:08:13;;;;;;;1999.90;999.90;;;19.10;99.90;;;;;;5028493;28;20537;-71
2022/05/17 07:13:24;;;;;;;1999.90;999.90;;;19.00;99.90;;;;;;5031826;28;20474;-71
2022/05/17 07:15:51;;;;;;;1999.90;999.90;;;19.30;99.90;;;;;;5031196;28;20483;-71
2022/05/17 07:18:20;;;;;;;1999.90;999.90;;;19.80;99.90;;;;;;5023431;28;21026;-71
2022/05/17 07:20:49;;;;;;;1999.90;999.90;;;19.90;99.90;;;;;;5026013;28;20467;-71
2022/05/17 07:23:16;;;;;;;1999.90;999.90;;;19.80;99.90;;;;;;5030968;28;20471;-73
2022/05/17 07:25:45;;;;;;;1999.90;999.90;;;19.90;99.90;;;;;;5022954;28;20475;-69
2022/05/17 07:28:16;;;;;;;1999.90;999.90;;;20.20;99.90;;;;;;5031925;28;20518;-69
2022/05/17 07:30:43;;;;;;;1999.90;999.90;;;20.30;99.90;;;;;;5032107;28;20443;-68
2022/05/17 07:33:10;;;;;;;1999.90;999.90;;;20.20;99.90;;;;;;5021210;28;20474;-71
2022/05/17 07:35:37;;;;;;;1999.90;999.90;;;20.20;99.90;;;;;;5030770;28;20475;-69
2022/05/17 07:38:06;;;;;;;1999.90;999.90;;;20.20;99.90;;;;;;5029784;28;20992;-71
2022/05/17 07:40:33;;;;;;;1999.90;999.90;;;20.20;99.90;;;;;;5026725;28;20514;-71
2022/05/17 07:43:00;;;;;;;1999.90;999.90;;;20.40;99.90;;;;;;5032074;28;20500;-70
2022/05/17 07:45:27;;;;;;;1999.90;999.90;;;20.80;99.90;;;;;;5031788;28;20474;-69
2022/05/17 07:47:54;;;;;;;1999.90;999.90;;;20.80;99.90;;;;;;5031501;28;20951;-71
2022/05/17 07:50:20;;;;;;;1999.90;999.90;;;20.50;99.90;;;;;;5031834;28;20446;-71
2022/05/17 07:52:47;;;;;;;1999.90;999.90;;;20.20;99.90;;;;;;5029878;28;20452;-70
2022/05/17 07:55:15;;;;;;;1999.90;999.90;;;20.40;99.90;;;;;;5022755;28;20959;-70
2022/05/17 07:57:42;;;;;;;1999.90;999.90;;;20.50;99.90;;;;;;5031830;28;20431;-72
2022/05/17 08:00:10;;;;;;;1999.90;999.90;;;20.20;99.90;;;;;;5032789;28;20451;-71
2022/05/17 08:02:37;;;;;;;1999.90;999.90;;;20.40;99.90;;;;;;5035499;28;20828;-72
2022/05/17 08:05:04;;;;;;;1999.90;999.90;;;20.50;99.90;;;;;;5035728;28;20454;-72
2022/05/17 08:07:31;;;;;;;1999.90;999.90;;;20.70;99.90;;;;;;5034964;28;20499;-72
2022/05/17 08:09:58;;;;;;;1999.90;999.90;;;21.10;99.90;;;;;;5034997;28;20566;-70
2022/05/17 08:12:26;;;;;;;1999.90;999.90;;;21.20;99.90;;;;;;5033428;28;20897;-70
2022/05/17 08:14:52;;;;;;;1999.90;999.90;;;21.60;99.90;;;;;;5032828;28;20490;-70
2022/05/17 08:17:19;;;;;;;1999.90;999.90;;;21.70;99.90;;;;;;5035787;28;20540;-70
2022/05/17 08:19:46;;;;;;;1999.90;999.90;;;22.00;99.90;;;;;;5036160;28;20597;-71
2022/05/17 08:22:14;;;;;;;1999.90;999.90;;;22.20;99.90;;;;;;5035178;28;20469;-67
2022/05/17 08:27:39;;;;;;;1999.90;999.90;;;22.20;99.90;;;;;;5006376;28;20451;-70
2022/05/17 08:30:12;;;;;;;1999.90;999.90;;;22.20;99.90;;;;;;5020375;28;20545;-69
2022/05/17 08:35:30;;;;;;;1999.90;999.90;;;22.10;99.90;;;;;;5032709;28;20552;-70
2022/05/17 08:37:57;;;;;;;1999.90;999.90;;;22.30;99.90;;;;;;5028938;28;20455;-70
2022/05/17 08:40:24;;;;;;;1999.90;999.90;;;22.40;99.90;;;;;;5034647;28;20462;-70
2022/05/17 08:43:04;;;;;;;1999.90;999.90;;;22.60;99.90;;;;;;5027366;28;20447;-70
2022/05/17 08:45:37;;;;;;;1999.90;999.90;;;22.60;99.90;;;;;;5016252;28;20472;-70
2022/05/17 08:48:08;;;;;;;1999.90;999.90;;;22.50;99.90;;;;;;5034742;28;20955;-70
2022/05/17 08:50:38;;;;;;;1999.90;999.90;;;22.60;99.90;;;;;;5033021;28;20524;-70
2022/05/17 08:53:05;;;;;;;1999.90;999.90;;;23.00;99.90;;;;;;5034956;28;20931;-69
2022/05/17 08:55:36;;;;;;;1999.90;999.90;;;22.60;99.90;;;;;;5032917;28;21005;-70
2022/05/17 08:58:10;;;;;;;1999.90;999.90;;;22.60;99.90;;;;;;5034572;28;20467;-69
2022/05/17 09:00:40;;;;;;;1999.90;999.90;;;22.60;99.90;;;;;;5033256;28;20463;-69
2022/05/17 09:03:18;;;;;;;1999.90;999.90;;;22.80;99.90;;;;;;5034589;28;20490;-69
2022/05/17 09:05:49;;;;;;;1999.90;999.90;;;22.90;99.90;;;;;;5032523;28;20533;-70
2022/05/17 09:08:34;;;;;;;1999.90;999.90;;;22.60;99.90;;;;;;5035214;28;20501;-69
2022/05/17 09:11:07;;;;;;;1999.90;999.90;;;22.30;99.90;;;;;;5032105;28;20466;-72
2022/05/17 09:13:47;;;;;;;1999.90;999.90;;;22.00;99.90;;;;;;5025645;28;20478;-71
2022/05/17 09:16:15;;;;;;;1999.90;999.90;;;21.80;99.90;;;;;;5031398;28;20533;-68
2022/05/17 09:18:44;;;;;;;1999.90;999.90;;;22.00;99.90;;;;;;5034046;28;20853;-71
2022/05/17 09:21:29;;;;;;;1999.90;999.90;;;22.50;99.90;;;;;;5034354;28;20451;-69
2022/05/17 09:23:58;;;;;;;1999.90;999.90;;;22.90;99.90;;;;;;5034886;28;20446;-69
2022/05/17 09:26:26;;;;;;;1999.90;999.90;;;22.80;99.90;;;;;;5034621;28;21018;-69
2022/05/17 09:28:59;;;;;;;1999.90;999.90;;;22.50;99.90;;;;;;5034201;28;20483;-69
2022/05/17 09:31:30;;;;;;;1999.90;999.90;;;22.30;99.90;;;;;;5033919;28;20458;-69
2022/05/17 09:33:58;;;;;;;1999.90;999.90;;;22.60;99.90;;;;;;5033149;28;20467;-69
2022/05/17 09:36:31;;;;;;;1999.90;999.90;;;23.00;99.90;;;;;;5034425;28;20548;-69
2022/05/17 09:38:59;;;;;;;1999.90;999.90;;;23.40;99.90;;;;;;5032603;28;20459;-69
2022/05/17 09:41:29;;;;;;;1999.90;999.90;;;23.20;99.90;;;;;;5022633;28;20826;-69
2022/05/17 09:44:04;;;;;;;1999.90;999.90;;;23.20;99.90;;;;;;5032176;28;20462;-70
2022/05/17 09:46:33;;;;;;;1999.90;999.90;;;23.40;99.90;;;;;;5025575;28;20486;-69
2022/05/17 09:54:39;;;;;;;1999.90;999.90;;;23.90;99.90;;;;;;5034207;28;21222;-70
2022/05/17 09:57:14;;;;;;;1999.90;999.90;;;24.10;99.90;;;;;;5033840;28;20510;-70
2022/05/17 09:59:44;;;;;;;1999.90;999.90;;;24.30;99.90;;;;;;5033701;28;20455;-69
2022/05/17 10:02:40;;;;;;;1999.90;999.90;;;24.60;99.90;;;;;;5033957;28;20501;-69
2022/05/17 10:05:23;;;;;;;1999.90;999.90;;;24.40;99.90;;;;;;5033912;28;20497;-70
2022/05/17 10:07:52;;;;;;;1999.90;999.90;;;24.40;99.90;;;;;;5034243;28;20483;-69
2022/05/17 10:10:27;;;;;;;1999.90;999.90;;;24.40;99.90;;;;;;5034028;28;20483;-69
2022/05/17 10:12:57;;;;;;;1999.90;999.90;;;24.60;99.90;;;;;;5032860;28;20450;-70
2022/05/17 10:15:28;;;;;;;1999.90;999.90;;;25.00;99.90;;;;;;5033591;28;20879;-69
2022/05/17 10:17:59;;;;;;;1999.90;999.90;;;25.10;99.60;;;;;;5033993;28;20527;-69
2022/05/17 10:20:32;;;;;;;1999.90;999.90;;;24.70;99.90;;;;;;5033714;28;20461;-69
2022/05/17 10:23:04;;;;;;;1999.90;999.90;;;24.40;99.90;;;;;;5032546;28;20534;-70
2022/05/17 10:25:37;;;;;;;1999.90;999.90;;;24.50;99.90;;;;;;5033510;28;20889;-69
2022/05/17 10:28:10;;;;;;;1999.90;999.90;;;24.60;99.90;;;;;;5033445;28;20455;-69
2022/05/17 10:30:45;;;;;;;1999.90;999.90;;;24.50;99.90;;;;;;5033639;28;20621;-69
2022/05/17 10:33:17;;;;;;;1999.90;999.90;;;24.60;99.90;;;;;;5033470;28;20435;-69
2022/05/17 10:35:49;;;;;;;1999.90;999.90;;;24.30;99.40;;;;;;5033695;28;20467;-69
2022/05/17 10:38:21;;;;;;;1999.90;999.90;;;23.80;99.90;;;;;;5033525;28;20837;-69
2022/05/17 10:40:50;;;;;;;1999.90;999.90;;;23.60;99.90;;;;;;5013387;28;20494;-69
2022/05/17 10:43:21;;;;;;;1999.90;999.90;;;23.30;99.90;;;;;;5013206;28;20809;-69
2022/05/17 10:46:00;;;;;;;1999.90;999.90;;;23.00;99.90;;;;;;5013585;28;20519;-69
2022/05/17 10:48:35;;;;;;;1999.90;999.90;;;22.70;99.90;;;;;;5013390;28;20464;-69
2022/05/17 10:51:11;;;;;;;1999.90;999.90;;;22.80;99.90;;;;;;5028402;28;20962;-69
2022/05/17 10:53:51;;;;;;;1999.90;999.90;;;22.70;99.90;;;;;;5025659;28;20462;-69
2022/05/17 10:56:29;;;;;;;1999.90;999.90;;;22.90;99.90;;;;;;5052392;23;20592;-69
2022/05/17 10:59:09;;;;;;;1999.90;999.90;;;22.70;99.90;;;;;;5026824;28;20475;-69
2022/05/17 11:01:42;;;;;;;1999.90;999.90;;;22.70;99.90;;;;;;5024647;28;20954;-69
2022/05/17 11:04:25;;;;;;;1999.90;999.90;;;22.60;99.90;;;;;;5024592;28;20860;-69
2022/05/17 11:06:58;;;;;;;1999.90;999.90;;;22.50;99.90;;;;;;5029497;28;21036;-69
2022/05/17 11:09:34;;;;;;;1999.90;999.90;;;22.10;99.90;;;;;;5030347;28;20478;-69
2022/05/17 11:12:05;;;;;;;1999.90;999.90;;;21.90;99.90;;;;;;5031932;28;20447;-68
2022/05/17 11:14:38;;;;;;;1999.90;999.90;;;22.10;99.90;;;;;;5029984;28;20513;-69
2022/05/17 11:17:14;;;;;;;1999.90;999.90;;;22.40;99.90;;;;;;5030646;28;21093;-69
2022/05/17 11:19:45;;;;;;;1999.90;999.90;;;22.80;99.90;;;;;;5029108;28;20525;-69
2022/05/17 11:22:16;;;;;;;1999.90;999.90;;;23.00;99.90;;;;;;5028973;28;20447;-69
2022/05/17 11:25:15;;;;;;;1999.90;999.90;;;23.10;99.90;;;;;;5025896;28;20464;-68
2022/05/17 11:27:57;;;;;;;1999.90;999.90;;;23.90;99.90;;;;;;5025609;28;20463;-68
2022/05/17 11:30:29;;;;;;;1999.90;999.90;;;24.30;99.90;;;;;;5022860;28;20476;-69
2022/05/17 11:33:24;;;;;;;1999.90;999.90;;;24.40;99.90;;;;;;5023546;28;20514;-69
2022/05/17 11:35:51;;;;;;;1999.90;999.90;;;24.70;99.90;;;;;;5024193;28;20459;-67
2022/05/17 11:38:40;;;;;;;1999.90;999.90;;;25.10;99.90;;;;;;5021857;28;20444;-67
2022/05/17 11:41:08;;;;;;;1999.90;999.90;;;25.40;99.90;;;;;;5019567;28;20469;-69
2022/05/17 11:43:44;;;;;;;1999.90;999.90;;;25.00;99.90;;;;;;5031626;28;20439;-69
2022/05/17 11:46:44;;;;;;;1999.90;999.90;;;24.60;99.90;;;;;;5028020;28;21061;-69
2022/05/17 11:49:47;;;;;;;1999.90;999.90;;;24.60;99.90;;;;;;5028871;28;20451;-69
2022/05/17 11:52:30;;;;;;;1999.90;999.90;;;24.90;99.90;;;;;;5030361;28;20469;-68
2022/05/17 11:54:59;;;;;;;1999.90;999.90;;;25.10;99.90;;;;;;5028343;28;20485;-68
2022/05/17 11:57:59;;;;;;;1999.90;999.90;;;25.10;99.90;;;;;;5031164;28;20560;-68
2022/05/17 12:00:48;;;;;;;1999.90;999.90;;;24.80;99.90;;;;;;5027306;28;20534;-70
2022/05/17 12:03:45;;;;;;;1999.90;999.90;;;24.40;98.90;;;;;;5019347;28;20468;-69
2022/05/17 12:06:30;;;;;;;1999.90;999.90;;;24.00;99.10;;;;;;5029350;28;20910;-69
2022/05/17 12:08:57;;;;;;;1999.90;999.90;;;24.00;99.10;;;;;;5027106;28;20822;-69
2022/05/17 12:11:37;;;;;;;1999.90;999.90;;;24.30;98.00;;;;;;5027450;28;21056;-69
2022/05/17 12:14:13;;;;;;;1999.90;999.90;;;24.50;97.50;;;;;;5027678;28;20497;-68
2022/05/17 12:16:47;;;;;;;1999.90;999.90;;;24.40;97.50;;;;;;5024464;28;20483;-69
2022/05/17 12:19:21;;;;;;;1999.90;999.90;;;24.30;96.80;;;;;;5029228;28;20455;-68
2022/05/17 12:21:58;;;;;;;1999.90;999.90;;;24.40;97.00;;;;;;5013069;28;20955;-69
2022/05/17 12:24:33;;;;;;;1999.90;999.90;;;24.40;96.40;;;;;;5011546;28;20456;-69
2022/05/17 12:27:13;;;;;;;1999.90;999.90;;;24.40;96.50;;;;;;5021322;28;20548;-68
2022/05/17 12:32:28;;;;;;;1999.90;999.90;;;24.60;97.00;;;;;;5030589;28;20966;-69